White Pine, MI (49971)

8:28 PM EDT on July 23, 2016 (GMT -0400)
Big Iron River - White Pine, MI. | | Change Station

Elev 940 ft 46.76 °N, 89.59 °W | Updated 2 minutes ago

Overcast
Overcast
79.0 °F
Feels Like 83 °F
N
0.0
Wind Variable Wind from North

Today
High -- | Low -- °F
--% Chance of Precip.
Yesterday
High -- | Low -- °F
Precip. -- in
Pressure 29.85 in
Visibility 10.0 miles
Clouds Overcast 12000 ft
Heat Index 83 °F
Dew Point 76 °F
Humidity 90%
Rainfall 0.00 in
Snow Depth Not available.
6:28 AM 9:40 PM
Waning Gibbous, 81% visible
METAR KIWD 240015Z AUTO 17003KT 10SM OVC120 24/22 A2985 RMK AO1
Pressure 29.85 in
Visibility 10.0 miles
Clouds Overcast 12000 ft
Heat Index 83 °F
Dew Point 76 °F
Humidity 90%
Rainfall 0.00 in
Snow Depth Not available.
6:28 AM 9:40 PM
Waning Gibbous, 81% visible
METAR KIWD 240015Z AUTO 17003KT 10SM OVC120 24/22 A2985 RMK AO1

10-Day Weather Forecast

Almanac

Astronomy

Jul. 23, 2016 Rise Set
Actual Time
Civil Twilight
Nautical Twilight
Astronomical Twilight
Moon
Length of Visible Light
Length of Day
Tomorrow will be .
, % of the Moon is Illuminated

Today's Extremes

State Highs State Lows

Community

WunderPhotos

Upload Photos

1,926,979 photos uploaded!

WunderBlog® & News

Nearby

Air Quality

  Air Quality AQ Index Pollutant
Not available.

Snow Depth

Station Depth Elevation

Earthquake Activity

City Distance Mag. Time & Date
Minimum magnitude displayed is 2.5.

Coastal Water Temperatures

Place Temperature

Stations

Nearby Weather Stations

Station Location Temp. Windchill Dew Point Humidity Wind Precip. Elev Updated Type
                   

Watches & Warnings

There are currently no watches in effect.